Time;durP1;ratioP1;P1;durP2;ratioP2;P2;SDS_P1;SDS_P2;PMS_P1;PMS_P2;Temp;Humidity;BMP_temperature;BMP_pressure;BME280_temperature;BME280_humidity;BME280_pressure;Samples;Min_cycle;Max_cycle;Signal;HPM_P1;HPM_P2
2022/08/16 00:01:13;;;;;;;16.58;12.00;;;;;;;20.05;74.36;100625.00;5054508;28;20080;-73
2022/08/16 00:03:39;;;;;;;16.00;11.93;;;;;;;20.03;74.92;100624.78;5053685;28;20046;-73
2022/08/16 00:06:06;;;;;;;12.68;11.38;;;;;;;20.01;74.74;100624.56;5054107;28;20044;-73
2022/08/16 00:08:35;;;;;;;14.00;11.10;;;;;;;20.01;74.42;100632.66;5054166;28;20048;-73
2022/08/16 00:11:06;;;;;;;13.98;11.25;;;;;;;19.95;74.88;100626.63;5054175;28;20057;-73
2022/08/16 00:13:33;;;;;;;12.68;11.43;;;;;;;19.90;75.06;100628.13;5054049;28;20057;-73
2022/08/16 00:16:07;;;;;;;14.43;11.40;;;;;;;19.84;75.34;100632.13;5054393;28;20116;-73
2022/08/16 00:18:54;;;;;;;11.73;10.65;;;;;;;19.85;75.18;100633.59;5052685;28;20168;-74
2022/08/16 00:21:21;;;;;;;14.15;11.20;;;;;;;19.82;75.50;100631.91;5053728;28;20422;-73
2022/08/16 00:23:48;;;;;;;13.10;11.80;;;;;;;19.76;75.25;100640.03;5054322;28;20088;-74
2022/08/16 00:26:14;;;;;;;12.75;11.43;;;;;;;19.73;75.62;100637.63;5054336;28;20057;-73
2022/08/16 00:29:02;;;;;;;11.77;10.57;;;;;;;19.68;75.82;100635.69;5052578;28;20045;-74
2022/08/16 00:31:32;;;;;;;10.93;9.85;;;;;;;19.60;76.02;100638.94;5053625;28;20050;-74
2022/08/16 00:34:21;;;;;;;11.57;10.13;;;;;;;19.52;76.87;100640.75;5053551;28;20137;-74
2022/08/16 00:37:07;;;;;;;13.50;10.57;;;;;;;19.45;76.89;100641.28;5053807;28;20061;-74
2022/08/16 00:39:34;;;;;;;11.35;10.20;;;;;;;19.41;76.62;100642.78;5052337;28;20045;-74
2022/08/16 00:42:01;;;;;;;12.45;11.20;;;;;;;19.34;77.34;100644.06;5053622;28;20537;-73
2022/08/16 00:44:28;;;;;;;14.88;10.73;;;;;;;19.25;78.38;100642.41;5052272;28;20053;-74
2022/08/16 00:47:04;;;;;;;12.60;11.02;;;;;;;19.21;78.07;100646.59;5053711;28;20041;-73
2022/08/16 00:49:33;;;;;;;12.13;10.88;;;;;;;19.12;78.98;100644.22;5053367;28;20046;-73
2022/08/16 00:52:09;;;;;;;12.10;10.77;;;;;;;19.11;78.67;100648.88;5051946;28;20053;-73
2022/08/16 00:54:55;;;;;;;11.45;10.45;;;;;;;19.09;78.86;100647.94;5053378;28;20073;-74
2022/08/16 00:57:22;;;;;;;11.75;10.75;;;;;;;19.06;78.71;100648.91;5052122;28;20045;-73
2022/08/16 00:59:49;;;;;;;11.40;10.38;;;;;;;19.05;78.69;100647.47;5053375;28;20088;-73
2022/08/16 01:02:24;;;;;;;11.27;10.38;;;;;;;18.98;78.86;100646.75;5052415;28;20474;-73
2022/08/16 01:04:58;;;;;;;12.05;10.85;;;;;;;18.94;79.47;100646.28;5052535;28;20056;-73
2022/08/16 01:07:39;;;;;;;12.75;10.40;;;;;;;18.88;78.81;100645.56;5053403;28;20045;-73
2022/08/16 01:10:23;;;;;;;10.85;9.70;;;;;;;18.83;79.10;100646.34;5053493;28;20049;-73
2022/08/16 01:13:06;;;;;;;10.45;9.65;;;;;;;18.78;79.47;100647.13;5051947;28;20057;-74
2022/08/16 01:15:36;;;;;;;12.00;10.38;;;;;;;18.72;79.84;100643.72;5051735;28;20052;-73
2022/08/16 01:18:10;;;;;;;10.68;9.63;;;;;;;18.67;80.23;100641.78;5052897;28;20050;-73
2022/08/16 01:21:16;;;;;;;10.27;9.27;;;;;;;18.64;79.42;100638.13;5053198;28;20084;-73
2022/08/16 01:23:58;;;;;;;10.48;9.48;;;;;;;18.64;79.35;100634.69;5036083;28;20081;-73
2022/08/16 01:26:30;;;;;;;10.93;9.82;;;;;;;18.56;79.93;100647.19;5050954;28;20430;-73
2022/08/16 01:29:06;;;;;;;12.77;10.35;;;;;;;18.53;79.26;100643.53;5051250;28;20131;-73
2022/08/16 01:31:36;;;;;;;10.93;9.95;;;;;;;18.48;79.61;100649.66;5051330;28;20057;-73
2022/08/16 01:34:12;;;;;;;10.88;9.43;;;;;;;18.40;79.86;100650.66;5050977;28;20049;-73
2022/08/16 01:36:59;;;;;;;10.38;9.45;;;;;;;18.41;80.15;100644.06;5051391;28;20054;-73
2022/08/16 01:39:26;;;;;;;11.10;10.00;;;;;;;18.41;79.99;100652.13;5051154;28;20046;-73
2022/08/16 01:41:53;;;;;;;11.07;9.98;;;;;;;18.35;80.85;100646.78;5052795;28;20133;-73
2022/08/16 01:44:21;;;;;;;11.48;10.27;;;;;;;18.33;79.96;100641.91;5051320;28;20054;-73
2022/08/16 01:46:49;;;;;;;12.02;10.02;;;;;;;18.32;79.77;100645.81;5051676;28;20037;-73
2022/08/16 01:49:26;;;;;;;11.63;10.55;;;;;;;18.29;80.31;100649.50;5051687;28;20156;-73
2022/08/16 01:52:17;;;;;;;11.73;9.73;;;;;;;18.25;80.23;100646.31;5051322;28;20049;-73
2022/08/16 01:55:23;;;;;;;11.25;10.25;;;;;;;18.24;80.39;100647.56;5050432;28;20521;-73
2022/08/16 01:57:52;;;;;;;10.68;9.82;;;;;;;18.22;80.23;100639.22;5051227;28;20511;-73
2022/08/16 02:00:24;;;;;;;10.73;9.68;;;;;;;18.20;80.52;100644.38;5051106;28;20052;-73
2022/08/16 02:02:56;;;;;;;11.20;9.60;;;;;;;18.17;81.16;100636.53;5050254;28;20140;-73
2022/08/16 02:05:23;;;;;;;13.15;10.05;;;;;;;18.15;81.04;100639.00;5052203;28;20057;-73
2022/08/16 02:07:50;;;;;;;10.88;9.82;;;;;;;18.09;81.70;100633.63;5052276;28;20063;-73
2022/08/16 02:10:19;;;;;;;11.30;10.15;;;;;;;18.08;81.21;100634.84;5051162;28;20060;-73
2022/08/16 02:12:48;;;;;;;12.32;10.73;;;;;;;18.03;81.86;100638.28;5051032;28;20053;-73
2022/08/16 02:15:28;;;;;;;11.68;10.57;;;;;;;17.98;81.67;100637.09;5050905;28;20498;-72
2022/08/16 02:17:58;;;;;;;11.75;10.57;;;;;;;17.93;82.36;100637.84;5084089;28;20081;-72
2022/08/16 02:20:31;;;;;;;11.48;10.15;;;;;;;17.89;81.71;100642.75;5050859;28;20490;-72
2022/08/16 02:23:00;;;;;;;11.07;9.95;;;;;;;17.80;82.73;100644.94;5050873;28;20045;-72
2022/08/16 02:25:31;;;;;;;16.45;10.68;;;;;;;17.76;81.98;100639.06;5051925;28;20049;-73
2022/08/16 02:28:18;;;;;;;11.35;10.25;;;;;;;17.74;82.23;100644.22;5052709;28;20082;-72
2022/08/16 02:30:46;;;;;;;11.20;10.20;;;;;;;17.71;82.15;100645.94;5050437;28;20045;-74
2022/08/16 02:33:17;;;;;;;10.45;9.60;;;;;;;17.69;81.93;100647.66;5051195;28;20056;-72
2022/08/16 02:35:45;;;;;;;10.63;9.52;;;;;;;17.69;82.02;100645.69;5050360;28;20050;-72
2022/08/16 02:38:22;;;;;;;10.48;9.43;;;;;;;17.66;82.00;100641.28;5049586;28;20576;-72
2022/08/16 02:40:50;;;;;;;11.48;9.88;;;;;;;17.62;82.05;100644.19;5050710;28;20057;-72
2022/08/16 02:43:20;;;;;;;10.00;9.00;;;;;;;17.63;81.73;100647.63;5050853;28;20080;-72
2022/08/16 02:45:52;;;;;;;12.00;9.80;;;;;;;17.61;82.32;100642.72;5050049;28;20096;-72
2022/08/16 02:48:18;;;;;;;10.85;9.77;;;;;;;17.57;82.30;100644.94;5050471;28;20061;-72
2022/08/16 02:51:01;;;;;;;11.48;10.15;;;;;;;17.55;82.38;100636.63;5051823;28;20065;-73
2022/08/16 02:53:42;;;;;;;10.90;9.90;;;;;;;17.54;82.33;100637.13;5050448;28;20107;-72
2022/08/16 02:56:12;;;;;;;10.75;9.85;;;;;;;17.52;82.48;100634.91;5050238;28;20049;-73
2022/08/16 02:58:42;;;;;;;15.77;10.07;;;;;;;17.47;82.92;100634.91;5049732;28;20053;-73
2022/08/16 03:01:11;;;;;;;10.70;9.70;;;;;;;17.47;82.36;100637.59;5050966;28;20502;-75
2022/08/16 03:04:00;;;;;;;10.55;9.55;;;;;;;17.41;82.97;100626.84;5049608;28;20136;-75
2022/08/16 03:06:47;;;;;;;13.00;10.32;;;;;;;17.38;83.10;100632.47;5051962;28;20041;-73
2022/08/16 03:09:23;;;;;;;10.55;9.55;;;;;;;17.34;82.75;100635.38;5050182;28;20528;-75
2022/08/16 03:11:52;;;;;;;12.02;10.00;;;;;;;17.28;83.45;100638.06;5050180;28;20157;-75
2022/08/16 03:14:19;;;;;;;10.82;9.60;;;;;;;17.25;83.44;100630.97;5050125;28;20054;-72
2022/08/16 03:16:53;;;;;;;10.40;9.50;;;;;;;17.19;83.49;100634.91;5050165;28;20092;-74
2022/08/16 03:19:32;;;;;;;10.82;9.88;;;;;;;17.18;83.20;100636.13;5049922;28;20081;-73
2022/08/16 03:22:20;;;;;;;10.48;9.52;;;;;;;17.16;83.28;100633.91;5064339;28;20050;-73
2022/08/16 03:25:00;;;;;;;11.20;10.10;;;;;;;17.16;83.25;100628.53;5050316;28;20050;-73
2022/08/16 03:27:31;;;;;;;11.05;9.88;;;;;;;17.14;83.43;100625.59;5050040;28;20116;-74
2022/08/16 03:30:05;;;;;;;10.43;9.53;;;;;;;17.11;83.93;100623.88;5049400;28;20056;-74
2022/08/16 03:32:47;;;;;;;11.43;9.95;;;;;;;17.08;83.60;100624.13;5050129;28;20053;-74
2022/08/16 03:35:23;;;;;;;10.90;9.90;;;;;;;17.09;83.87;100622.91;5050447;28;20041;-74
2022/08/16 03:38:00;;;;;;;11.98;9.63;;;;;;;17.03;83.42;100628.25;5083560;28;20053;-74
2022/08/16 03:40:38;;;;;;;11.32;10.18;;;;;;;17.00;83.36;100621.16;5050016;28;20073;-74
2022/08/16 03:43:11;;;;;;;11.80;10.55;;;;;;;17.00;83.48;100631.94;5049380;28;20056;-74
2022/08/16 03:45:48;;;;;;;;;;;;;;;16.98;82.41;100635.09;5050694;28;20045;-74
2022/08/16 03:48:24;;;;;;;10.43;9.53;;;;;;;16.91;83.85;100630.19;5050292;28;20409;-74
2022/08/16 03:51:09;;;;;;;10.52;9.63;;;;;;;16.89;84.72;100635.31;5053042;28;20057;-73
2022/08/16 03:53:45;;;;;;;11.27;10.30;;;;;;;16.84;84.49;100636.03;5053184;28;20049;-73
2022/08/16 03:56:26;;;;;;;11.90;9.20;;;;;;;16.83;84.23;100637.25;5052851;28;20080;-73
2022/08/16 03:58:56;;;;;;;11.13;10.02;;;;;;;16.83;83.97;100637.25;5053887;28;20617;-73
2022/08/16 04:01:27;;;;;;;12.48;9.88;;;;;;;16.82;84.43;100635.78;5053228;28;20049;-74
2022/08/16 04:03:55;;;;;;;11.57;10.48;;;;;;;16.75;84.88;100643.59;5068922;28;20053;-74
2022/08/16 04:06:22;;;;;;;11.93;10.75;;;;;;;16.69;84.93;100656.28;5053052;28;20522;-74
2022/08/16 04:08:49;;;;;;;11.80;10.60;;;;;;;16.67;84.62;100654.06;5052984;28;20511;-73
2022/08/16 04:11:17;;;;;;;13.57;12.07;;;;;;;16.68;84.61;100660.94;5052852;28;20061;-73
2022/08/16 04:13:46;;;;;;;12.23;10.80;;;;;;;16.65;85.08;100659.19;5051983;28;20048;-73
2022/08/16 04:16:36;;;;;;;12.98;11.68;;;;;;;16.63;85.14;100659.66;5052530;28;20104;-73
2022/08/16 04:19:31;;;;;;;12.98;11.82;;;;;;;16.63;85.16;100656.22;5052563;28;20053;-73
2022/08/16 04:21:59;;;;;;;12.60;11.45;;;;;;;16.62;85.15;100655.50;5035777;28;20420;-73
2022/08/16 04:24:29;;;;;;;12.95;11.65;;;;;;;16.61;84.98;100664.03;5052256;28;20536;-74
2022/08/16 04:26:56;;;;;;;13.27;11.98;;;;;;;16.59;85.89;100661.09;5051528;28;20469;-73
2022/08/16 04:29:23;;;;;;;12.98;11.68;;;;;;;16.56;86.10;100664.75;5052116;28;20049;-73
2022/08/16 04:31:53;;;;;;;12.82;11.65;;;;;;;16.55;85.77;100668.66;5052002;28;20057;-73
2022/08/16 04:34:28;;;;;;;13.68;12.27;;;;;;;16.53;86.11;100669.13;5051993;28;20053;-73
2022/08/16 04:36:57;;;;;;;14.80;11.48;;;;;;;16.52;86.01;100669.63;5052373;28;20053;-74
2022/08/16 04:39:27;;;;;;;12.65;10.98;;;;;;;16.51;85.83;100668.88;5052487;28;20049;-73
2022/08/16 04:42:16;;;;;;;13.07;11.65;;;;;;;16.54;86.19;100680.63;5051967;28;20252;-74
2022/08/16 04:44:45;;;;;;;13.82;12.20;;;;;;;16.52;86.64;100678.41;5052297;28;20127;-74
2022/08/16 04:47:25;;;;;;;17.77;11.93;;;;;;;16.51;86.34;100687.69;5052284;28;20057;-73
2022/08/16 04:50:08;;;;;;;16.05;12.60;;;;;;;16.49;86.53;100687.44;5051979;28;20045;-74
2022/08/16 04:52:35;;;;;;;13.48;12.23;;;;;;;16.56;86.71;100697.00;5052008;28;20053;-74
2022/08/16 04:55:09;;;;;;;15.63;13.93;;;;;;;16.61;87.84;100693.59;5052115;28;20054;-74
2022/08/16 04:57:39;;;;;;;15.73;13.95;;;;;;;16.64;88.07;100693.41;5052092;28;20125;-74
2022/08/16 05:00:14;;;;;;;18.25;14.18;;;;;;;16.71;87.26;100694.91;5051664;28;20054;-74
2022/08/16 05:03:10;;;;;;;23.02;13.48;;;;;;;16.74;87.81;100690.50;5052036;28;20057;-74
2022/08/16 05:05:44;;;;;;;15.40;13.82;;;;;;;16.77;87.80;100698.34;5053094;28;20465;-74
2022/08/16 05:08:31;;;;;;;20.15;15.40;;;;;;;16.79;87.94;100695.91;5053430;28;20065;-74
2022/08/16 05:11:27;;;;;;;15.98;14.05;;;;;;;16.87;87.80;100698.84;5048251;28;20049;-74
2022/08/16 05:14:00;;;;;;;17.42;14.48;;;;;;;16.93;87.33;100694.97;5051506;28;20049;-74
2022/08/16 05:16:34;;;;;;;15.85;14.18;;;;;;;17.00;87.38;100699.88;5051715;28;20054;-74
2022/08/16 05:19:06;;;;;;;21.98;17.58;;;;;;;17.09;87.59;100695.50;5051778;28;20050;-74
2022/08/16 05:21:41;;;;;;;18.05;16.15;;;;;;;17.17;87.37;100699.22;5051580;28;20088;-74
2022/08/16 05:24:09;;;;;;;18.27;15.55;;;;;;;18.05;85.32;100703.16;5051133;28;20522;-74
2022/08/16 05:26:37;;;;;;;18.25;15.65;;;;;;;19.43;78.83;100703.13;5051513;28;20060;-74
2022/08/16 05:29:10;;;;;;;18.13;15.18;;;;;;;20.59;73.14;100714.13;5051544;28;20052;-74
2022/08/16 05:31:49;;;;;;;17.08;15.27;;;;;;;21.47;69.57;100710.78;5051680;28;20521;-74
2022/08/16 05:34:20;;;;;;;18.52;15.90;;;;;;;22.21;66.46;100714.47;5051768;28;20064;-74
2022/08/16 05:36:51;;;;;;;17.13;15.00;;;;;;;22.67;64.18;100709.66;5051483;28;20500;-74
2022/08/16 05:39:20;;;;;;;16.63;14.93;;;;;;;23.16;62.62;100706.41;5034899;28;20080;-74
2022/08/16 05:41:49;;;;;;;19.70;14.95;;;;;;;23.47;60.93;100708.16;5051648;28;20049;-74
2022/08/16 05:44:19;;;;;;;19.02;15.25;;;;;;;23.12;61.51;100714.88;5051704;28;20454;-74
2022/08/16 05:46:56;;;;;;;18.65;15.73;;;;;;;22.41;64.21;100709.66;5051400;28;20506;-74
2022/08/16 05:49:28;;;;;;;16.90;14.75;;;;;;;23.04;62.72;100716.06;5050948;28;20077;-74
2022/08/16 05:52:09;;;;;;;16.48;14.73;;;;;;;23.22;62.33;100715.13;5050895;28;20057;-74
2022/08/16 05:54:42;;;;;;;19.48;14.82;;;;;;;23.87;60.36;100716.81;5050408;28;20084;-73
2022/08/16 05:57:16;;;;;;;25.23;14.43;;;;;;;24.17;59.20;100712.84;5050978;28;20081;-77
2022/08/16 05:59:44;;;;;;;17.40;14.95;;;;;;;23.23;61.50;100713.88;5051035;28;20064;-74
2022/08/16 06:02:12;;;;;;;16.52;14.75;;;;;;;22.21;64.92;100719.16;5050886;28;20712;-75
2022/08/16 06:04:42;;;;;;;18.88;14.95;;;;;;;22.46;65.09;100720.41;5050402;28;20061;-75
2022/08/16 06:07:14;;;;;;;17.02;15.15;;;;;;;23.38;62.24;100716.03;5050826;28;20045;-76
2022/08/16 06:10:06;;;;;;;17.30;15.68;;;;;;;23.84;60.22;100717.88;5050813;28;20488;-82
2022/08/16 06:12:36;;;;;;;18.25;15.52;;;;;;;23.67;60.57;100724.97;5050461;28;20053;-74
2022/08/16 06:15:09;;;;;;;21.95;15.50;;;;;;;23.81;61.43;100727.09;5052134;28;20154;-77
2022/08/16 06:17:39;;;;;;;17.35;15.40;;;;;;;23.96;60.44;100728.50;5050590;28;20050;-77
2022/08/16 06:20:26;;;;;;;19.02;15.40;;;;;;;24.04;60.51;100727.25;5050493;28;20049;-77
2022/08/16 06:23:08;;;;;;;17.60;15.65;;;;;;;24.03;61.17;100730.50;5050156;28;20120;-78
2022/08/16 06:26:07;;;;;;;19.63;16.95;;;;;;;23.80;61.38;100730.34;5050541;28;20054;-78
2022/08/16 06:28:38;;;;;;;22.08;16.25;;;;;;;23.67;61.81;100742.03;5050706;28;20049;-76
2022/08/16 06:31:11;;;;;;;19.25;16.50;;;;;;;23.66;62.33;100737.84;5050310;28;20049;-77
2022/08/16 06:33:42;;;;;;;19.30;16.48;;;;;;;23.55;62.93;100735.41;5050343;28;20152;-82
2022/08/16 06:36:12;;;;;;;19.05;17.10;;;;;;;23.49;63.62;100734.78;5050369;28;20120;-81
2022/08/16 06:38:45;;;;;;;25.40;18.50;;;;;;;23.47;63.65;100738.03;5034461;28;20049;-81
2022/08/16 06:41:48;;;;;;;22.17;18.35;;;;;;;23.37;64.47;100734.31;5039186;28;20509;-78
2022/08/16 06:44:25;;;;;;;26.05;18.83;;;;;;;23.31;63.89;100736.41;5050251;28;20506;-77
2022/08/16 06:46:56;;;;;;;19.65;17.60;;;;;;;23.24;63.91;100726.19;5050255;28;20148;-77
2022/08/16 06:49:28;;;;;;;;;;;;;;;23.14;64.58;100727.94;5050670;28;20081;-77
2022/08/16 06:51:57;;;;;;;21.27;18.20;;;;;;;23.12;64.53;100727.72;5049774;28;20373;-85
2022/08/16 06:54:34;;;;;;;29.13;18.58;;;;;;;23.16;64.72;100734.28;5036269;28;20923;-86
2022/08/16 06:57:01;;;;;;;25.63;18.55;;;;;;;23.05;64.79;100736.50;5050363;28;20685;-81
2022/08/16 06:59:28;;;;;;;24.73;18.77;;;;;;;23.00;64.03;100738.09;5050239;28;20049;-81
2022/08/16 07:02:14;;;;;;;23.20;18.27;;;;;;;22.95;64.72;100734.22;5069741;28;20864;-82
2022/08/16 07:05:05;;;;;;;25.63;18.98;;;;;;;22.97;64.17;100738.41;5049703;28;20107;-81
2022/08/16 07:07:47;;;;;;;21.80;17.88;;;;;;;22.94;63.59;100732.03;5049413;28;20053;-80
2022/08/16 07:10:17;;;;;;;18.85;17.05;;;;;;;22.99;64.48;100738.63;5050320;28;20049;-81
2022/08/16 07:12:52;;;;;;;19.67;16.88;;;;;;;23.11;64.26;100742.56;5033939;28;20054;-81
2022/08/16 07:15:36;;;;;;;20.95;17.13;;;;;;;23.16;63.32;100742.44;5049867;28;20092;-79
2022/08/16 07:18:21;;;;;;;17.65;15.82;;;;;;;23.29;63.78;100747.06;5035698;28;20112;-74
2022/08/16 07:20:52;;;;;;;18.30;15.95;;;;;;;23.34;62.53;100748.94;5050868;28;20196;-76
2022/08/16 07:23:20;;;;;;;25.77;16.75;;;;;;;23.42;63.07;100752.47;5051504;28;20073;-77
2022/08/16 07:26:06;;;;;;;20.45;15.48;;;;;;;23.53;62.73;100754.97;5053337;28;20061;-77
2022/08/16 07:28:35;;;;;;;16.77;15.07;;;;;;;23.70;60.79;100751.09;5053264;28;20077;-76
2022/08/16 07:31:03;;;;;;;16.77;15.18;;;;;;;23.68;60.37;100759.06;5054764;28;20522;-75
2022/08/16 07:33:41;;;;;;;18.23;16.38;;;;;;;23.72;58.98;100754.03;5052995;28;20475;-72
2022/08/16 07:36:21;;;;;;;17.58;15.73;;;;;;;23.77;59.92;100751.16;5052733;28;20494;-75
2022/08/16 07:38:51;;;;;;;15.50;13.93;;;;;;;23.97;59.56;100748.97;5053057;28;20177;-75
2022/08/16 07:41:18;;;;;;;18.92;14.90;;;;;;;24.22;59.42;100753.50;5054043;28;20041;-75
2022/08/16 07:43:50;;;;;;;16.73;15.02;;;;;;;24.24;58.88;100763.84;5056719;28;20056;-73
2022/08/16 07:46:17;;;;;;;21.65;15.38;;;;;;;24.38;58.33;100767.94;5073260;28;20643;-75
2022/08/16 07:49:09;;;;;;;18.02;15.50;;;;;;;24.54;57.22;100772.19;5072460;28;20056;-75
2022/08/16 07:51:37;;;;;;;18.02;14.02;;;;;;;24.64;57.70;100777.88;5071230;28;20079;-76
2022/08/16 07:54:07;;;;;;;15.45;13.85;;;;;;;24.79;56.96;100788.13;5073133;28;20055;-75
2022/08/16 07:56:41;;;;;;;16.45;14.75;;;;;;;24.76;56.29;100781.03;5072783;28;20146;-78
2022/08/16 07:59:08;;;;;;;16.40;14.70;;;;;;;24.85;57.06;100785.94;5072649;28;20587;-75
2022/08/16 08:01:37;;;;;;;16.45;14.80;;;;;;;24.99;56.16;100790.03;5073076;28;20045;-75
2022/08/16 08:04:03;;;;;;;14.65;13.20;;;;;;;25.19;55.94;100799.38;5071898;28;20144;-79
2022/08/16 08:06:35;;;;;;;17.67;14.60;;;;;;;24.99;53.41;100798.19;5072907;28;20057;-78
2022/08/16 08:09:14;;;;;;;19.02;15.05;;;;;;;25.02;54.59;100796.38;5072878;28;20056;-78
2022/08/16 08:11:41;;;;;;;18.25;13.85;;;;;;;25.19;54.38;100805.50;5072835;28;20509;-76
2022/08/16 08:14:31;;;;;;;15.85;13.27;;;;;;;25.49;54.96;100793.97;5072709;28;20563;-78
2022/08/16 08:17:00;;;;;;;16.75;14.30;;;;;;;25.66;53.36;100795.47;5072714;28;20060;-79
2022/08/16 08:19:29;;;;;;;17.77;15.23;;;;;;;25.65;53.20;100794.72;5072130;28;20088;-77
2022/08/16 08:21:56;;;;;;;16.15;14.48;;;;;;;25.74;53.31;100799.66;5056051;28;20307;-78
2022/08/16 08:24:46;;;;;;;16.40;14.90;;;;;;;25.84;53.49;100799.84;5073157;28;20051;-76
2022/08/16 08:27:13;;;;;;;15.75;13.27;;;;;;;26.02;53.08;100798.00;5072588;28;20053;-76
2022/08/16 08:29:51;;;;;;;15.30;13.82;;;;;;;26.19;52.36;100800.91;5057090;28;20060;-76
2022/08/16 08:32:39;;;;;;;14.98;13.00;;;;;;;26.35;51.11;100804.38;5072188;28;20191;-75
2022/08/16 08:35:27;;;;;;;14.98;13.32;;;;;;;26.36;51.39;100805.84;5072419;28;20490;-75
2022/08/16 08:37:56;;;;;;;13.02;11.68;;;;;;;26.44;50.39;100806.53;5072454;28;20057;-75
2022/08/16 08:40:28;;;;;;;17.80;13.57;;;;;;;26.44;50.38;100817.44;5071837;28;20057;-74
2022/08/16 08:42:57;;;;;;;17.30;13.65;;;;;;;26.38;50.56;100816.94;5072634;28;20527;-76
2022/08/16 08:45:38;;;;;;;17.27;12.95;;;;;;;26.45;51.15;100818.91;5072520;28;20547;-76
2022/08/16 08:48:17;;;;;;;15.52;13.75;;;;;;;26.62;51.27;100824.53;5072100;28;20049;-73
2022/08/16 08:51:00;;;;;;;15.73;14.00;;;;;;;26.71;51.22;100828.69;5070892;28;20053;-74
2022/08/16 08:53:28;;;;;;;18.38;14.75;;;;;;;26.78;50.18;100830.66;5048912;28;20119;-76
2022/08/16 08:55:57;;;;;;;15.90;14.05;;;;;;;26.82;50.89;100815.34;5071028;28;20492;-76
2022/08/16 08:58:25;;;;;;;15.40;13.55;;;;;;;26.87;51.21;100824.59;5071985;28;20049;-76
2022/08/16 09:01:29;;;;;;;15.15;13.25;;;;;;;27.08;50.47;100827.13;5071817;28;20060;-75
2022/08/16 09:04:04;;;;;;;17.60;13.30;;;;;;;27.16;49.84;100825.81;5071990;28;20045;-75
2022/08/16 09:06:35;;;;;;;16.30;14.52;;;;;;;27.14;50.19;100822.19;5072194;28;20080;-74
2022/08/16 09:09:10;;;;;;;16.63;15.15;;;;;;;27.17;49.87;100813.59;5072021;28;20242;-74
2022/08/16 09:11:45;;;;;;;16.20;14.63;;;;;;;27.21;50.11;100815.91;5071789;28;20049;-74
2022/08/16 09:14:19;;;;;;;19.70;13.73;;;;;;;27.24;49.59;100820.28;5072215;28;20057;-73
2022/08/16 09:16:51;;;;;;;13.18;11.32;;;;;;;27.19;49.06;100818.50;5070760;28;20541;-75
2022/08/16 09:19:30;;;;;;;14.57;12.50;;;;;;;27.03;48.83;100833.50;5071222;28;20076;-75
2022/08/16 09:21:59;;;;;;;17.30;12.38;;;;;;;26.91;49.96;100838.63;5073098;28;20045;-75
2022/08/16 09:24:26;;;;;;;15.90;14.23;;;;;;;27.14;49.31;100839.28;5071472;28;20049;-76
2022/08/16 09:27:13;;;;;;;14.10;11.52;;;;;;;27.51;49.40;100845.09;5071384;28;20131;-74
2022/08/16 09:29:39;;;;;;;13.25;11.95;;;;;;;27.69;47.68;100840.44;5071321;28;20060;-75
2022/08/16 09:32:15;;;;;;;14.38;12.50;;;;;;;27.68;48.05;100839.00;5072524;28;20049;-76
2022/08/16 09:34:56;;;;;;;14.57;12.52;;;;;;;27.80;48.71;100834.53;5072828;28;20044;-75
2022/08/16 09:37:25;;;;;;;23.23;12.93;;;;;;;28.05;48.51;100837.97;5071555;28;20124;-76
2022/08/16 09:39:59;;;;;;;22.65;13.57;;;;;;;28.05;47.57;100837.25;5072681;28;20052;-77
2022/08/16 09:42:27;;;;;;;16.50;11.18;;;;;;;27.97;48.45;100844.81;5072773;28;20049;-77
2022/08/16 09:44:54;;;;;;;12.77;11.07;;;;;;;28.12;47.92;100839.94;5072199;28;20464;-77
2022/08/16 09:47:41;;;;;;;11.27;10.18;;;;;;;28.21;47.81;100841.34;5072393;28;20072;-77
2022/08/16 09:50:25;;;;;;;10.93;9.93;;;;;;;28.50;48.10;100847.81;5071436;28;20048;-76
2022/08/16 09:53:04;;;;;;;16.75;12.20;;;;;;;28.59;47.34;100846.44;5072942;28;20140;-78
2022/08/16 09:55:32;;;;;;;18.20;11.93;;;;;;;28.69;45.83;100850.00;5071410;28;20052;-77
2022/08/16 09:58:10;;;;;;;11.18;10.02;;;;;;;28.87;46.75;100854.19;5072739;28;20521;-77
2022/08/16 10:00:56;;;;;;;12.93;10.68;;;;;;;28.87;45.51;100850.72;5072035;28;20072;-75
2022/08/16 10:03:26;;;;;;;12.00;10.07;;;;;;;28.62;45.54;100856.28;5072218;28;20058;-76
2022/08/16 10:05:56;;;;;;;11.77;10.43;;;;;;;28.38;46.73;100852.34;5071719;28;20057;-74
2022/08/16 10:08:23;;;;;;;12.20;9.75;;;;;;;28.32;46.89;100859.31;5072300;28;20041;-75
2022/08/16 10:13:38;;;;;;;11.35;8.98;;;;;;;28.62;46.74;100859.00;5086685;28;20103;-74
2022/08/16 10:16:07;;;;;;;10.82;9.52;;;;;;;28.80;47.17;100854.97;5091767;28;20047;-76
2022/08/16 10:18:35;;;;;;;12.73;10.38;;;;;;;29.02;46.76;100860.78;5092433;28;20124;-74
2022/08/16 10:21:23;;;;;;;12.13;9.32;;;;;;;29.20;46.54;100862.19;5092585;28;20098;-77
2022/08/16 10:23:53;;;;;;;13.82;11.15;;;;;;;29.04;45.39;100852.72;5090886;28;20154;-76
2022/08/16 10:26:23;;;;;;;13.13;9.70;;;;;;;29.09;45.05;100843.53;5088759;28;20048;-75
2022/08/16 10:29:10;;;;;;;11.32;8.68;;;;;;;29.33;45.51;100855.63;5071998;28;20045;-75
2022/08/16 10:31:37;;;;;;;13.10;10.18;;;;;;;29.60;44.80;100850.88;5071988;28;20043;-76
2022/08/16 10:34:12;;;;;;;13.73;10.73;;;;;;;29.56;43.30;100856.06;5054681;28;20528;-73
2022/08/16 10:36:59;;;;;;;10.50;8.98;;;;;;;29.68;43.83;100851.50;5072015;28;20132;-75
2022/08/16 10:39:26;;;;;;;10.00;8.32;;;;;;;29.96;44.25;100855.66;5072012;28;20425;-74
2022/08/16 10:42:08;;;;;;;10.68;9.57;;;;;;;30.10;43.44;100851.22;5070657;28;20141;-75
2022/08/16 10:44:35;;;;;;;12.70;9.25;;;;;;;29.93;43.89;100859.53;5071279;28;20098;-74
2022/08/16 10:47:01;;;;;;;17.33;11.90;;;;;;;29.60;44.54;100863.88;5071904;28;20045;-75
2022/08/16 10:49:29;;;;;;;12.60;10.50;;;;;;;29.40;45.83;100860.28;5071633;28;20191;-75
2022/08/16 10:51:57;;;;;;;14.07;11.77;;;;;;;29.49;45.56;100859.66;5071663;28;20496;-76
2022/08/16 10:54:43;;;;;;;13.48;11.18;;;;;;;29.71;45.11;100863.34;5071628;28;20515;-74
2022/08/16 10:57:33;;;;;;;13.23;10.40;;;;;;;29.83;45.75;100867.72;5071337;28;20045;-75
2022/08/16 11:00:05;;;;;;;18.73;10.97;;;;;;;30.10;45.35;100864.22;5073199;28;20049;-75
2022/08/16 11:02:47;;;;;;;14.57;12.48;;;;;;;29.96;44.26;100863.16;5073561;28;20044;-73
2022/08/16 11:05:36;;;;;;;20.40;12.98;;;;;;;29.72;44.98;100876.47;5072928;28;20143;-75
2022/08/16 11:08:22;;;;;;;12.90;11.65;;;;;;;29.58;45.43;100874.72;5074284;28;20541;-77
2022/08/16 11:11:04;;;;;;;17.95;12.90;;;;;;;29.51;45.47;100882.47;5075133;28;20513;-77
2022/08/16 11:13:38;;;;;;;11.93;10.75;;;;;;;29.47;46.59;100882.16;5074259;28;20163;-76
2022/08/16 11:16:27;;;;;;;13.80;12.60;;;;;;;29.45;45.99;100876.50;5074533;28;20059;-75
2022/08/16 11:19:13;;;;;;;15.35;11.93;;;;;;;29.41;46.42;100883.69;5073620;28;20048;-75
2022/08/16 11:21:42;;;;;;;15.23;12.20;;;;;;;29.50;47.01;100888.53;5075055;28;20040;-75
2022/08/16 11:24:29;;;;;;;15.00;13.50;;;;;;;29.44;46.85;100888.78;5074372;28;20128;-75
2022/08/16 11:27:13;;;;;;;14.13;12.18;;;;;;;29.61;47.08;100887.25;5072696;28;20049;-76
2022/08/16 11:29:55;;;;;;;17.27;11.93;;;;;;;29.81;47.33;100894.28;5074887;28;20475;-75
2022/08/16 11:32:25;;;;;;;14.65;11.50;;;;;;;30.09;46.98;100893.69;5072865;28;20056;-76
2022/08/16 11:35:01;;;;;;;12.05;10.82;;;;;;;30.45;46.13;100897.66;5073694;28;20063;-76
2022/08/16 11:37:45;;;;;;;18.60;13.88;;;;;;;30.35;45.57;100892.16;5074823;28;20051;-76
2022/08/16 11:40:40;;;;;;;20.85;14.80;;;;;;;30.31;45.59;100902.13;5073237;28;20561;-75
2022/08/16 11:43:10;;;;;;;18.73;14.32;;;;;;;30.18;45.29;100901.22;5074635;28;20045;-75
2022/08/16 11:45:37;;;;;;;13.73;12.43;;;;;;;30.20;46.36;100897.91;5074295;28;20067;-75
2022/08/16 11:48:05;;;;;;;18.05;13.68;;;;;;;30.30;45.60;100901.41;5073330;28;20563;-75
2022/08/16 11:50:32;;;;;;;20.77;14.48;;;;;;;30.30;44.98;100901.41;5072904;28;20053;-75